sensor_id;sensor_type;location;lat;lon;timestamp;temperature;humidity
56234;DHT22;42141;53.240;6.580;2023-02-03T00:01:47;8.80;99.90
56234;DHT22;42141;53.240;6.580;2023-02-03T00:04:13;8.80;99.90
56234;DHT22;42141;53.240;6.580;2023-02-03T00:06:39;8.80;99.90
56234;DHT22;42141;53.240;6.580;2023-02-03T00:09:05;9.00;99.90
56234;DHT22;42141;53.240;6.580;2023-02-03T00:11:31;9.50;99.90
56234;DHT22;42141;53.240;6.580;2023-02-03T00:13:56;8.80;99.90
56234;DHT22;42141;53.240;6.580;2023-02-03T00:16:22;8.80;99.90
56234;DHT22;42141;53.240;6.580;2023-02-03T00:18:48;9.10;99.90
56234;DHT22;42141;53.240;6.580;2023-02-03T00:21:13;8.80;99.90
56234;DHT22;42141;53.240;6.580;2023-02-03T00:23:42;8.80;99.90
56234;DHT22;42141;53.240;6.580;2023-02-03T00:26:16;8.80;99.90
56234;DHT22;42141;53.240;6.580;2023-02-03T00:28:42;9.10;99.90
56234;DHT22;42141;53.240;6.580;2023-02-03T00:31:22;8.90;99.90
56234;DHT22;42141;53.240;6.580;2023-02-03T00:33:54;8.80;99.90
56234;DHT22;42141;53.240;6.580;2023-02-03T00:36:20;9.80;99.90
56234;DHT22;42141;53.240;6.580;2023-02-03T00:38:46;8.80;99.90
56234;DHT22;42141;53.240;6.580;2023-02-03T00:41:13;9.40;99.90
56234;DHT22;42141;53.240;6.580;2023-02-03T00:43:39;8.80;99.90
56234;DHT22;42141;53.240;6.580;2023-02-03T00:46:04;9.90;99.90
56234;DHT22;42141;53.240;6.580;2023-02-03T00:48:30;9.40;99.90
56234;DHT22;42141;53.240;6.580;2023-02-03T00:50:56;8.80;99.90
56234;DHT22;42141;53.240;6.580;2023-02-03T00:53:21;8.80;99.90
56234;DHT22;42141;53.240;6.580;2023-02-03T00:55:47;9.50;99.90
56234;DHT22;42141;53.240;6.580;2023-02-03T00:58:13;10.00;99.90
56234;DHT22;42141;53.240;6.580;2023-02-03T01:00:38;8.90;99.90
56234;DHT22;42141;53.240;6.580;2023-02-03T01:03:04;9.30;99.90
56234;DHT22;42141;53.240;6.580;2023-02-03T01:05:30;8.90;99.90
56234;DHT22;42141;53.240;6.580;2023-02-03T01:07:56;8.90;99.90
56234;DHT22;42141;53.240;6.580;2023-02-03T01:10:21;9.10;99.90
56234;DHT22;42141;53.240;6.580;2023-02-03T01:12:47;8.90;99.90
56234;DHT22;42141;53.240;6.580;2023-02-03T01:15:13;9.70;99.90
56234;DHT22;42141;53.240;6.580;2023-02-03T01:17:38;9.50;99.90
56234;DHT22;42141;53.240;6.580;2023-02-03T01:20:04;9.70;99.90
56234;DHT22;42141;53.240;6.580;2023-02-03T01:22:30;8.80;99.90
56234;DHT22;42141;53.240;6.580;2023-02-03T01:24:56;8.80;99.90
56234;DHT22;42141;53.240;6.580;2023-02-03T01:27:22;8.80;99.90
56234;DHT22;42141;53.240;6.580;2023-02-03T01:29:48;8.80;99.90
56234;DHT22;42141;53.240;6.580;2023-02-03T01:32:13;8.80;99.90
56234;DHT22;42141;53.240;6.580;2023-02-03T01:34:39;9.10;99.90
56234;DHT22;42141;53.240;6.580;2023-02-03T01:37:05;9.60;99.90
56234;DHT22;42141;53.240;6.580;2023-02-03T01:39:30;8.80;99.90
56234;DHT22;42141;53.240;6.580;2023-02-03T01:41:56;8.80;99.90
56234;DHT22;42141;53.240;6.580;2023-02-03T01:44:48;8.80;99.90
56234;DHT22;42141;53.240;6.580;2023-02-03T01:47:33;8.80;99.90
56234;DHT22;42141;53.240;6.580;2023-02-03T01:50:24;8.80;99.90
56234;DHT22;42141;53.240;6.580;2023-02-03T01:52:55;8.80;99.90
56234;DHT22;42141;53.240;6.580;2023-02-03T01:55:26;9.20;99.90
56234;DHT22;42141;53.240;6.580;2023-02-03T01:58:00;8.80;99.90
56234;DHT22;42141;53.240;6.580;2023-02-03T02:00:26;9.70;99.90
56234;DHT22;42141;53.240;6.580;2023-02-03T02:02:52;8.80;99.90
56234;DHT22;42141;53.240;6.580;2023-02-03T02:05:27;9.30;99.90
56234;DHT22;42141;53.240;6.580;2023-02-03T02:07:55;8.80;99.90
56234;DHT22;42141;53.240;6.580;2023-02-03T02:10:21;8.80;99.90
56234;DHT22;42141;53.240;6.580;2023-02-03T02:12:47;10.10;99.90
56234;DHT22;42141;53.240;6.580;2023-02-03T02:15:13;8.50;99.90
56234;DHT22;42141;53.240;6.580;2023-02-03T02:17:54;8.80;99.90
56234;DHT22;42141;53.240;6.580;2023-02-03T02:31:46;8.80;99.90
56234;DHT22;42141;53.240;6.580;2023-02-03T02:39:46;8.80;99.90
56234;DHT22;42141;53.240;6.580;2023-02-03T02:44:59;8.80;99.90
56234;DHT22;42141;53.240;6.580;2023-02-03T02:47:28;9.10;99.90
56234;DHT22;42141;53.240;6.580;2023-02-03T02:52:21;9.60;99.90
56234;DHT22;42141;53.240;6.580;2023-02-03T02:54:51;8.80;99.90
56234;DHT22;42141;53.240;6.580;2023-02-03T02:57:19;8.80;99.90
56234;DHT22;42141;53.240;6.580;2023-02-03T02:59:47;9.40;99.90
56234;DHT22;42141;53.240;6.580;2023-02-03T03:02:13;9.70;99.90
56234;DHT22;42141;53.240;6.580;2023-02-03T03:04:39;8.80;99.90
56234;DHT22;42141;53.240;6.580;2023-02-03T03:07:07;8.80;99.90
56234;DHT22;42141;53.240;6.580;2023-02-03T03:09:41;9.80;99.90
56234;DHT22;42141;53.240;6.580;2023-02-03T03:12:22;9.30;99.90
56234;DHT22;42141;53.240;6.580;2023-02-03T03:14:53;8.70;99.90
56234;DHT22;42141;53.240;6.580;2023-02-03T03:17:25;9.00;99.90
56234;DHT22;42141;53.240;6.580;2023-02-03T03:19:56;8.70;99.90
56234;DHT22;42141;53.240;6.580;2023-02-03T03:22:30;8.70;99.90
56234;DHT22;42141;53.240;6.580;2023-02-03T03:25:10;9.90;99.90
56234;DHT22;42141;53.240;6.580;2023-02-03T03:27:39;8.60;99.90
56234;DHT22;42141;53.240;6.580;2023-02-03T03:30:10;8.60;99.90
56234;DHT22;42141;53.240;6.580;2023-02-03T03:32:38;8.70;99.90
56234;DHT22;42141;53.240;6.580;2023-02-03T03:35:05;8.90;99.90
56234;DHT22;42141;53.240;6.580;2023-02-03T03:37:44;8.70;99.90
56234;DHT22;42141;53.240;6.580;2023-02-03T03:40:25;8.70;99.90
56234;DHT22;42141;53.240;6.580;2023-02-03T03:42:56;8.70;99.90
56234;DHT22;42141;53.240;6.580;2023-02-03T03:45:30;8.70;99.90
56234;DHT22;42141;53.240;6.580;2023-02-03T03:48:08;8.70;99.90
56234;DHT22;42141;53.240;6.580;2023-02-03T03:50:55;8.70;99.90
56234;DHT22;42141;53.240;6.580;2023-02-03T03:53:23;8.70;99.90
56234;DHT22;42141;53.240;6.580;2023-02-03T03:55:51;8.70;99.90
56234;DHT22;42141;53.240;6.580;2023-02-03T03:58:30;8.80;99.90
56234;DHT22;42141;53.240;6.580;2023-02-03T04:01:01;8.80;99.90
56234;DHT22;42141;53.240;6.580;2023-02-03T04:03:46;8.80;99.90
56234;DHT22;42141;53.240;6.580;2023-02-03T04:06:12;8.80;99.90
56234;DHT22;42141;53.240;6.580;2023-02-03T04:08:38;9.60;99.90
56234;DHT22;42141;53.240;6.580;2023-02-03T04:11:04;8.80;99.90
56234;DHT22;42141;53.240;6.580;2023-02-03T04:13:30;9.40;99.90
56234;DHT22;42141;53.240;6.580;2023-02-03T04:15:56;8.80;99.90
56234;DHT22;42141;53.240;6.580;2023-02-03T04:18:22;8.80;99.90
56234;DHT22;42141;53.240;6.580;2023-02-03T04:20:48;8.80;99.90
56234;DHT22;42141;53.240;6.580;2023-02-03T04:23:13;8.80;99.90
56234;DHT22;42141;53.240;6.580;2023-02-03T04:25:39;8.80;99.90
56234;DHT22;42141;53.240;6.580;2023-02-03T04:28:05;9.90;99.90
56234;DHT22;42141;53.240;6.580;2023-02-03T04:30:31;8.90;99.90
56234;DHT22;42141;53.240;6.580;2023-02-03T04:32:57;8.90;99.90
56234;DHT22;42141;53.240;6.580;2023-02-03T04:35:22;9.30;99.90
56234;DHT22;42141;53.240;6.580;2023-02-03T04:37:48;8.90;99.90
56234;DHT22;42141;53.240;6.580;2023-02-03T04:40:14;8.90;99.90
56234;DHT22;42141;53.240;6.580;2023-02-03T04:42:40;8.80;99.90
56234;DHT22;42141;53.240;6.580;2023-02-03T04:45:07;8.80;99.90
56234;DHT22;42141;53.240;6.580;2023-02-03T04:47:34;8.80;99.90
56234;DHT22;42141;53.240;6.580;2023-02-03T04:49:59;9.70;99.90
56234;DHT22;42141;53.240;6.580;2023-02-03T04:52:25;10.10;99.90
56234;DHT22;42141;53.240;6.580;2023-02-03T04:54:51;8.90;99.90
56234;DHT22;42141;53.240;6.580;2023-02-03T04:57:16;8.90;99.90
56234;DHT22;42141;53.240;6.580;2023-02-03T04:59:42;9.40;99.90
56234;DHT22;42141;53.240;6.580;2023-02-03T05:02:08;9.10;99.90
56234;DHT22;42141;53.240;6.580;2023-02-03T05:04:34;8.90;99.90
56234;DHT22;42141;53.240;6.580;2023-02-03T05:06:59;8.90;99.90
56234;DHT22;42141;53.240;6.580;2023-02-03T05:09:25;9.60;99.90
56234;DHT22;42141;53.240;6.580;2023-02-03T05:11:52;8.80;99.90
56234;DHT22;42141;53.240;6.580;2023-02-03T05:14:18;9.50;99.90
56234;DHT22;42141;53.240;6.580;2023-02-03T05:16:44;9.20;99.90
56234;DHT22;42141;53.240;6.580;2023-02-03T05:19:10;9.10;99.90
56234;DHT22;42141;53.240;6.580;2023-02-03T05:21:36;8.90;99.90
56234;DHT22;42141;53.240;6.580;2023-02-03T05:24:02;9.20;99.90
56234;DHT22;42141;53.240;6.580;2023-02-03T05:26:31;8.90;99.90
56234;DHT22;42141;53.240;6.580;2023-02-03T05:28:57;8.90;99.90
56234;DHT22;42141;53.240;6.580;2023-02-03T05:31:22;9.60;99.90
56234;DHT22;42141;53.240;6.580;2023-02-03T05:33:48;9.40;99.90
56234;DHT22;42141;53.240;6.580;2023-02-03T05:36:14;9.80;99.90
56234;DHT22;42141;53.240;6.580;2023-02-03T05:38:39;10.10;99.90
56234;DHT22;42141;53.240;6.580;2023-02-03T05:41:09;8.90;99.90
56234;DHT22;42141;53.240;6.580;2023-02-03T05:43:54;8.90;99.90
56234;DHT22;42141;53.240;6.580;2023-02-03T05:46:19;9.50;99.90
56234;DHT22;42141;53.240;6.580;2023-02-03T05:48:45;8.90;99.90
56234;DHT22;42141;53.240;6.580;2023-02-03T05:51:12;9.20;99.90
56234;DHT22;42141;53.240;6.580;2023-02-03T05:53:37;8.90;99.90
56234;DHT22;42141;53.240;6.580;2023-02-03T05:56:03;8.90;99.90
56234;DHT22;42141;53.240;6.580;2023-02-03T05:58:29;8.90;99.90
56234;DHT22;42141;53.240;6.580;2023-02-03T06:00:55;8.90;99.90
56234;DHT22;42141;53.240;6.580;2023-02-03T06:03:20;8.90;99.90
56234;DHT22;42141;53.240;6.580;2023-02-03T06:05:46;9.70;99.90
56234;DHT22;42141;53.240;6.580;2023-02-03T06:08:12;9.60;99.90
56234;DHT22;42141;53.240;6.580;2023-02-03T06:10:37;7.90;99.90
56234;DHT22;42141;53.240;6.580;2023-02-03T06:13:08;9.00;99.90
56234;DHT22;42141;53.240;6.580;2023-02-03T06:15:34;8.00;99.90
56234;DHT22;42141;53.240;6.580;2023-02-03T06:18:00;9.10;99.90
56234;DHT22;42141;53.240;6.580;2023-02-03T06:20:25;9.50;99.90
56234;DHT22;42141;53.240;6.580;2023-02-03T06:22:51;9.10;99.90
56234;DHT22;42141;53.240;6.580;2023-02-03T06:25:17;9.10;99.90
56234;DHT22;42141;53.240;6.580;2023-02-03T06:27:42;9.10;99.90
56234;DHT22;42141;53.240;6.580;2023-02-03T06:30:08;9.90;99.90
56234;DHT22;42141;53.240;6.580;2023-02-03T06:32:35;9.10;99.90
56234;DHT22;42141;53.240;6.580;2023-02-03T06:35:01;8.80;99.90
56234;DHT22;42141;53.240;6.580;2023-02-03T06:37:27;9.40;99.90
56234;DHT22;42141;53.240;6.580;2023-02-03T06:39:52;9.10;99.90
56234;DHT22;42141;53.240;6.580;2023-02-03T06:42:18;9.10;99.90
56234;DHT22;42141;53.240;6.580;2023-02-03T06:44:44;9.10;99.90
56234;DHT22;42141;53.240;6.580;2023-02-03T06:47:09;9.40;99.90
56234;DHT22;42141;53.240;6.580;2023-02-03T06:49:35;9.00;99.90
56234;DHT22;42141;53.240;6.580;2023-02-03T06:52:01;9.00;99.90
56234;DHT22;42141;53.240;6.580;2023-02-03T06:54:26;9.00;99.90
56234;DHT22;42141;53.240;6.580;2023-02-03T06:56:52;9.00;99.90
56234;DHT22;42141;53.240;6.580;2023-02-03T06:59:18;9.00;99.90
56234;DHT22;42141;53.240;6.580;2023-02-03T07:01:44;9.90;99.90
56234;DHT22;42141;53.240;6.580;2023-02-03T07:04:09;9.90;99.90
56234;DHT22;42141;53.240;6.580;2023-02-03T07:06:35;9.00;99.90
56234;DHT22;42141;53.240;6.580;2023-02-03T07:09:03;9.00;99.90
56234;DHT22;42141;53.240;6.580;2023-02-03T07:11:30;10.00;99.90
56234;DHT22;42141;53.240;6.580;2023-02-03T07:13:55;9.00;99.90
56234;DHT22;42141;53.240;6.580;2023-02-03T07:16:21;9.00;99.90
56234;DHT22;42141;53.240;6.580;2023-02-03T07:18:47;9.10;99.90
56234;DHT22;42141;53.240;6.580;2023-02-03T07:21:14;9.80;99.90
56234;DHT22;42141;53.240;6.580;2023-02-03T07:23:39;9.10;99.90
56234;DHT22;42141;53.240;6.580;2023-02-03T07:26:06;9.10;99.90
56234;DHT22;42141;53.240;6.580;2023-02-03T07:28:33;9.10;99.90
56234;DHT22;42141;53.240;6.580;2023-02-03T07:31:00;9.40;99.90
56234;DHT22;42141;53.240;6.580;2023-02-03T07:33:26;9.10;99.90
56234;DHT22;42141;53.240;6.580;2023-02-03T07:35:57;9.60;99.90
56234;DHT22;42141;53.240;6.580;2023-02-03T07:38:24;10.00;99.90
56234;DHT22;42141;53.240;6.580;2023-02-03T07:40:50;9.40;99.90
56234;DHT22;42141;53.240;6.580;2023-02-03T07:43:16;8.80;99.90
56234;DHT22;42141;53.240;6.580;2023-02-03T07:45:42;9.80;99.90
56234;DHT22;42141;53.240;6.580;2023-02-03T07:48:07;9.50;99.90
56234;DHT22;42141;53.240;6.580;2023-02-03T07:50:33;9.00;99.90
56234;DHT22;42141;53.240;6.580;2023-02-03T07:52:59;9.40;99.90
56234;DHT22;42141;53.240;6.580;2023-02-03T07:55:26;9.00;99.90
56234;DHT22;42141;53.240;6.580;2023-02-03T07:57:53;8.90;99.90
56234;DHT22;42141;53.240;6.580;2023-02-03T08:00:19;8.90;99.90
56234;DHT22;42141;53.240;6.580;2023-02-03T08:02:45;8.90;99.90
56234;DHT22;42141;53.240;6.580;2023-02-03T08:05:11;8.90;99.90
56234;DHT22;42141;53.240;6.580;2023-02-03T08:07:37;8.90;99.90
56234;DHT22;42141;53.240;6.580;2023-02-03T08:10:04;9.10;99.90
56234;DHT22;42141;53.240;6.580;2023-02-03T08:12:29;8.90;99.90
56234;DHT22;42141;53.240;6.580;2023-02-03T08:14:55;9.40;99.90
56234;DHT22;42141;53.240;6.580;2023-02-03T08:17:21;9.70;99.90
56234;DHT22;42141;53.240;6.580;2023-02-03T08:19:47;8.90;99.90
56234;DHT22;42141;53.240;6.580;2023-02-03T08:22:13;9.00;99.90
56234;DHT22;42141;53.240;6.580;2023-02-03T08:24:45;9.00;99.90
56234;DHT22;42141;53.240;6.580;2023-02-03T08:27:16;9.70;99.90
56234;DHT22;42141;53.240;6.580;2023-02-03T08:29:43;9.00;99.90
56234;DHT22;42141;53.240;6.580;2023-02-03T08:32:09;9.10;99.90
56234;DHT22;42141;53.240;6.580;2023-02-03T08:34:36;10.30;99.90
56234;DHT22;42141;53.240;6.580;2023-02-03T08:37:02;9.10;99.90
56234;DHT22;42141;53.240;6.580;2023-02-03T08:39:27;9.60;99.90
56234;DHT22;42141;53.240;6.580;2023-02-03T08:41:53;9.60;99.90
56234;DHT22;42141;53.240;6.580;2023-02-03T08:44:19;9.10;99.90
56234;DHT22;42141;53.240;6.580;2023-02-03T08:46:48;9.60;99.90
56234;DHT22;42141;53.240;6.580;2023-02-03T08:49:14;10.30;99.90
56234;DHT22;42141;53.240;6.580;2023-02-03T08:51:40;9.10;99.90
56234;DHT22;42141;53.240;6.580;2023-02-03T08:54:05;9.20;99.90
56234;DHT22;42141;53.240;6.580;2023-02-03T08:56:31;9.10;99.90
56234;DHT22;42141;53.240;6.580;2023-02-03T08:58:58;9.10;99.90
56234;DHT22;42141;53.240;6.580;2023-02-03T09:01:24;10.20;99.90
56234;DHT22;42141;53.240;6.580;2023-02-03T09:03:50;10.10;99.90
56234;DHT22;42141;53.240;6.580;2023-02-03T09:06:16;9.20;99.90
56234;DHT22;42141;53.240;6.580;2023-02-03T09:08:43;9.30;99.90
56234;DHT22;42141;53.240;6.580;2023-02-03T09:11:09;9.80;99.90
56234;DHT22;42141;53.240;6.580;2023-02-03T09:13:36;9.30;99.90
56234;DHT22;42141;53.240;6.580;2023-02-03T09:16:02;9.30;99.90
56234;DHT22;42141;53.240;6.580;2023-02-03T09:18:27;9.40;99.90
56234;DHT22;42141;53.240;6.580;2023-02-03T09:21:08;9.40;99.90
56234;DHT22;42141;53.240;6.580;2023-02-03T09:23:36;9.40;99.90
56234;DHT22;42141;53.240;6.580;2023-02-03T09:26:06;10.00;99.90
56234;DHT22;42141;53.240;6.580;2023-02-03T09:28:32;9.40;99.90
56234;DHT22;42141;53.240;6.580;2023-02-03T09:31:04;9.40;99.90
56234;DHT22;42141;53.240;6.580;2023-02-03T09:33:30;9.30;99.90
56234;DHT22;42141;53.240;6.580;2023-02-03T09:35:56;9.50;99.90
56234;DHT22;42141;53.240;6.580;2023-02-03T09:38:22;10.60;99.90
56234;DHT22;42141;53.240;6.580;2023-02-03T09:46:17;9.50;99.90
56234;DHT22;42141;53.240;6.580;2023-02-03T09:48:49;9.50;99.90
56234;DHT22;42141;53.240;6.580;2023-02-03T09:51:27;9.60;99.90
56234;DHT22;42141;53.240;6.580;2023-02-03T09:54:04;9.60;99.90
56234;DHT22;42141;53.240;6.580;2023-02-03T09:56:35;9.60;99.90
56234;DHT22;42141;53.240;6.580;2023-02-03T09:59:02;10.40;99.90
56234;DHT22;42141;53.240;6.580;2023-02-03T10:01:37;9.60;99.90
56234;DHT22;42141;53.240;6.580;2023-02-03T10:04:38;9.70;99.90
56234;DHT22;42141;53.240;6.580;2023-02-03T10:07:24;9.60;99.90
56234;DHT22;42141;53.240;6.580;2023-02-03T10:10:14;9.60;99.90
56234;DHT22;42141;53.240;6.580;2023-02-03T10:16:09;9.60;99.90
56234;DHT22;42141;53.240;6.580;2023-02-03T10:18:47;9.60;99.90
56234;DHT22;42141;53.240;6.580;2023-02-03T10:21:40;9.60;99.90
56234;DHT22;42141;53.240;6.580;2023-02-03T10:24:16;9.60;99.90
56234;DHT22;42141;53.240;6.580;2023-02-03T10:26:43;10.00;99.90
56234;DHT22;42141;53.240;6.580;2023-02-03T10:29:41;9.70;99.90
56234;DHT22;42141;53.240;6.580;2023-02-03T10:32:10;9.70;99.90
56234;DHT22;42141;53.240;6.580;2023-02-03T10:34:37;9.80;99.90
56234;DHT22;42141;53.240;6.580;2023-02-03T10:37:27;10.10;99.90
56234;DHT22;42141;53.240;6.580;2023-02-03T10:39:54;9.90;99.90
56234;DHT22;42141;53.240;6.580;2023-02-03T10:42:22;9.90;99.90
56234;DHT22;42141;53.240;6.580;2023-02-03T10:44:53;10.40;99.90
56234;DHT22;42141;53.240;6.580;2023-02-03T10:47:39;10.00;99.90
56234;DHT22;42141;53.240;6.580;2023-02-03T10:50:24;10.60;99.90
56234;DHT22;42141;53.240;6.580;2023-02-03T10:56:08;10.10;99.90
56234;DHT22;42141;53.240;6.580;2023-02-03T10:58:36;10.00;99.90
56234;DHT22;42141;53.240;6.580;2023-02-03T11:01:11;10.00;99.90
56234;DHT22;42141;53.240;6.580;2023-02-03T11:03:42;10.00;99.90
56234;DHT22;42141;53.240;6.580;2023-02-03T11:06:15;10.70;99.90
56234;DHT22;42141;53.240;6.580;2023-02-03T11:08:47;10.10;99.90
56234;DHT22;42141;53.240;6.580;2023-02-03T11:11:22;10.10;99.90
56234;DHT22;42141;53.240;6.580;2023-02-03T11:16:33;10.20;99.90
56234;DHT22;42141;53.240;6.580;2023-02-03T11:19:04;10.30;99.90
56234;DHT22;42141;53.240;6.580;2023-02-03T11:26:36;10.20;99.90
56234;DHT22;42141;53.240;6.580;2023-02-03T11:29:05;10.10;99.90
56234;DHT22;42141;53.240;6.580;2023-02-03T11:31:35;10.20;99.90
56234;DHT22;42141;53.240;6.580;2023-02-03T11:34:13;10.20;99.90
56234;DHT22;42141;53.240;6.580;2023-02-03T11:36:40;10.20;99.90
56234;DHT22;42141;53.240;6.580;2023-02-03T11:39:27;10.50;99.90
56234;DHT22;42141;53.240;6.580;2023-02-03T11:41:54;10.20;99.90
56234;DHT22;42141;53.240;6.580;2023-02-03T11:44:27;10.40;99.90
56234;DHT22;42141;53.240;6.580;2023-02-03T11:47:06;10.20;99.90
56234;DHT22;42141;53.240;6.580;2023-02-03T11:49:54;10.20;99.90
56234;DHT22;42141;53.240;6.580;2023-02-03T11:52:53;10.20;99.90
56234;DHT22;42141;53.240;6.580;2023-02-03T11:58:41;10.40;99.90
56234;DHT22;42141;53.240;6.580;2023-02-03T12:29:11;10.50;99.90
56234;DHT22;42141;53.240;6.580;2023-02-03T12:32:21;10.50;99.90
56234;DHT22;42141;53.240;6.580;2023-02-03T12:34:58;10.40;99.90
56234;DHT22;42141;53.240;6.580;2023-02-03T12:37:30;10.30;99.90
56234;DHT22;42141;53.240;6.580;2023-02-03T12:40:03;11.20;99.90
56234;DHT22;42141;53.240;6.580;2023-02-03T12:42:55;10.20;99.90
56234;DHT22;42141;53.240;6.580;2023-02-03T12:45:33;10.10;99.90
56234;DHT22;42141;53.240;6.580;2023-02-03T12:48:15;10.10;99.90
56234;DHT22;42141;53.240;6.580;2023-02-03T12:50:50;9.90;99.90
56234;DHT22;42141;53.240;6.580;2023-02-03T12:53:21;9.80;99.90
56234;DHT22;42141;53.240;6.580;2023-02-03T12:56:06;9.70;99.90
56234;DHT22;42141;53.240;6.580;2023-02-03T12:58:57;9.60;99.90
56234;DHT22;42141;53.240;6.580;2023-02-03T13:01:30;10.20;99.90
56234;DHT22;42141;53.240;6.580;2023-02-03T13:04:17;9.40;99.90
56234;DHT22;42141;53.240;6.580;2023-02-03T13:07:06;9.30;99.90
56234;DHT22;42141;53.240;6.580;2023-02-03T13:14:57;9.30;99.90
56234;DHT22;42141;53.240;6.580;2023-02-03T13:17:31;9.30;99.90
56234;DHT22;42141;53.240;6.580;2023-02-03T13:20:23;9.50;99.90
56234;DHT22;42141;53.240;6.580;2023-02-03T13:22:50;9.30;99.90
56234;DHT22;42141;53.240;6.580;2023-02-03T13:25:22;9.30;99.90
56234;DHT22;42141;53.240;6.580;2023-02-03T13:41:47;9.20;99.90
56234;DHT22;42141;53.240;6.580;2023-02-03T13:44:20;9.20;99.90
56234;DHT22;42141;53.240;6.580;2023-02-03T13:46:50;9.20;99.90
56234;DHT22;42141;53.240;6.580;2023-02-03T13:49:31;9.20;99.90
56234;DHT22;42141;53.240;6.580;2023-02-03T13:51:58;9.10;99.90
56234;DHT22;42141;53.240;6.580;2023-02-03T13:54:33;9.10;99.90
56234;DHT22;42141;53.240;6.580;2023-02-03T13:57:02;9.00;99.90
56234;DHT22;42141;53.240;6.580;2023-02-03T13:59:41;9.60;99.90
56234;DHT22;42141;53.240;6.580;2023-02-03T14:04:53;9.00;99.90
56234;DHT22;42141;53.240;6.580;2023-02-03T14:25:31;9.10;99.90
56234;DHT22;42141;53.240;6.580;2023-02-03T14:27:59;8.90;99.90
56234;DHT22;42141;53.240;6.580;2023-02-03T14:30:27;8.90;99.90
56234;DHT22;42141;53.240;6.580;2023-02-03T14:32:56;8.80;99.90
56234;DHT22;42141;53.240;6.580;2023-02-03T14:35:31;9.10;99.90
56234;DHT22;42141;53.240;6.580;2023-02-03T14:38:06;8.80;99.90
56234;DHT22;42141;53.240;6.580;2023-02-03T14:43:33;8.80;99.90
56234;DHT22;42141;53.240;6.580;2023-02-03T14:46:20;8.90;99.90
56234;DHT22;42141;53.240;6.580;2023-02-03T15:02:24;8.60;99.90
56234;DHT22;42141;53.240;6.580;2023-02-03T15:10:19;8.50;99.90
56234;DHT22;42141;53.240;6.580;2023-02-03T15:12:53;8.40;99.90
56234;DHT22;42141;53.240;6.580;2023-02-03T15:15:26;8.40;99.90
56234;DHT22;42141;53.240;6.580;2023-02-03T15:17:54;8.30;99.90
56234;DHT22;42141;53.240;6.580;2023-02-03T15:20:29;8.40;99.90
56234;DHT22;42141;53.240;6.580;2023-02-03T15:22:56;8.30;99.90
56234;DHT22;42141;53.240;6.580;2023-02-03T15:25:28;8.30;99.90
56234;DHT22;42141;53.240;6.580;2023-02-03T15:27:54;8.30;99.90
56234;DHT22;42141;53.240;6.580;2023-02-03T15:30:24;8.80;99.90
56234;DHT22;42141;53.240;6.580;2023-02-03T15:33:14;7.40;99.90
56234;DHT22;42141;53.240;6.580;2023-02-03T15:35:44;8.20;99.90
56234;DHT22;42141;53.240;6.580;2023-02-03T15:38:16;8.10;99.90
56234;DHT22;42141;53.240;6.580;2023-02-03T15:40:50;8.70;99.90
56234;DHT22;42141;53.240;6.580;2023-02-03T15:43:34;8.10;99.90
56234;DHT22;42141;53.240;6.580;2023-02-03T15:51:48;8.10;99.90
56234;DHT22;42141;53.240;6.580;2023-02-03T15:57:09;8.10;99.90
56234;DHT22;42141;53.240;6.580;2023-02-03T15:59:59;8.00;99.90
56234;DHT22;42141;53.240;6.580;2023-02-03T16:02:33;8.00;99.90
56234;DHT22;42141;53.240;6.580;2023-02-03T16:05:05;8.00;99.90
56234;DHT22;42141;53.240;6.580;2023-02-03T16:07:36;7.90;99.90
56234;DHT22;42141;53.240;6.580;2023-02-03T16:10:02;7.90;99.90
56234;DHT22;42141;53.240;6.580;2023-02-03T16:12:32;7.80;99.90
56234;DHT22;42141;53.240;6.580;2023-02-03T16:15:00;7.90;99.90
56234;DHT22;42141;53.240;6.580;2023-02-03T16:17:34;7.70;99.90
56234;DHT22;42141;53.240;6.580;2023-02-03T16:20:21;7.70;99.90
56234;DHT22;42141;53.240;6.580;2023-02-03T16:23:18;7.60;99.90
56234;DHT22;42141;53.240;6.580;2023-02-03T16:26:21;7.50;99.90
56234;DHT22;42141;53.240;6.580;2023-02-03T16:31:52;7.50;99.90
56234;DHT22;42141;53.240;6.580;2023-02-03T16:34:36;7.40;99.90
56234;DHT22;42141;53.240;6.580;2023-02-03T16:37:25;7.50;99.90
56234;DHT22;42141;53.240;6.580;2023-02-03T16:40:11;7.40;99.90
56234;DHT22;42141;53.240;6.580;2023-02-03T16:42:56;7.40;99.90
56234;DHT22;42141;53.240;6.580;2023-02-03T16:45:40;7.30;99.90
56234;DHT22;42141;53.240;6.580;2023-02-03T16:48:24;7.90;99.90
56234;DHT22;42141;53.240;6.580;2023-02-03T16:51:15;7.70;99.90
56234;DHT22;42141;53.240;6.580;2023-02-03T16:53:44;7.30;99.90
56234;DHT22;42141;53.240;6.580;2023-02-03T16:56:11;7.40;99.90
56234;DHT22;42141;53.240;6.580;2023-02-03T16:58:38;7.30;99.90
56234;DHT22;42141;53.240;6.580;2023-02-03T17:01:05;7.40;99.90
56234;DHT22;42141;53.240;6.580;2023-02-03T17:03:34;7.50;99.90
56234;DHT22;42141;53.240;6.580;2023-02-03T17:06:08;8.20;99.90
56234;DHT22;42141;53.240;6.580;2023-02-03T17:08:35;7.60;99.90
56234;DHT22;42141;53.240;6.580;2023-02-03T17:11:07;7.60;99.90
56234;DHT22;42141;53.240;6.580;2023-02-03T17:13:33;7.60;99.90
56234;DHT22;42141;53.240;6.580;2023-02-03T17:15:59;8.30;99.90
56234;DHT22;42141;53.240;6.580;2023-02-03T17:18:25;7.80;99.90
56234;DHT22;42141;53.240;6.580;2023-02-03T17:20:51;7.80;99.90
56234;DHT22;42141;53.240;6.580;2023-02-03T17:23:16;8.90;99.90
56234;DHT22;42141;53.240;6.580;2023-02-03T17:25:47;7.70;99.90
56234;DHT22;42141;53.240;6.580;2023-02-03T17:28:13;7.70;99.90
56234;DHT22;42141;53.240;6.580;2023-02-03T17:30:40;7.80;99.90
56234;DHT22;42141;53.240;6.580;2023-02-03T17:33:07;8.20;99.90
56234;DHT22;42141;53.240;6.580;2023-02-03T17:35:45;8.20;99.90
56234;DHT22;42141;53.240;6.580;2023-02-03T17:38:12;7.80;99.90
56234;DHT22;42141;53.240;6.580;2023-02-03T17:40:43;7.80;99.90
56234;DHT22;42141;53.240;6.580;2023-02-03T17:43:08;7.80;99.90
56234;DHT22;42141;53.240;6.580;2023-02-03T17:45:39;7.80;99.90
56234;DHT22;42141;53.240;6.580;2023-02-03T17:48:05;7.80;99.90
56234;DHT22;42141;53.240;6.580;2023-02-03T17:50:30;7.80;99.90
56234;DHT22;42141;53.240;6.580;2023-02-03T17:52:56;8.80;99.90
56234;DHT22;42141;53.240;6.580;2023-02-03T17:55:22;8.20;99.90
56234;DHT22;42141;53.240;6.580;2023-02-03T17:57:47;7.70;99.90
56234;DHT22;42141;53.240;6.580;2023-02-03T18:00:13;7.70;99.90
56234;DHT22;42141;53.240;6.580;2023-02-03T18:02:39;7.70;99.90
56234;DHT22;42141;53.240;6.580;2023-02-03T18:05:07;7.70;99.90
56234;DHT22;42141;53.240;6.580;2023-02-03T18:07:33;7.70;99.90
56234;DHT22;42141;53.240;6.580;2023-02-03T18:09:59;8.20;99.90
56234;DHT22;42141;53.240;6.580;2023-02-03T18:12:24;7.70;99.90
56234;DHT22;42141;53.240;6.580;2023-02-03T18:14:50;8.80;99.90
56234;DHT22;42141;53.240;6.580;2023-02-03T18:17:16;7.70;99.90
56234;DHT22;42141;53.240;6.580;2023-02-03T18:19:41;7.70;99.90
56234;DHT22;42141;53.240;6.580;2023-02-03T18:22:07;7.70;99.90
56234;DHT22;42141;53.240;6.580;2023-02-03T18:24:33;8.50;99.90
56234;DHT22;42141;53.240;6.580;2023-02-03T18:26:59;7.70;99.90
56234;DHT22;42141;53.240;6.580;2023-02-03T18:29:25;8.90;99.90
56234;DHT22;42141;53.240;6.580;2023-02-03T18:31:51;7.60;99.90